• Join FlightAware (Why Join?)
  • Login
  • US Flag 
11:45PM EST


 

Airport Tracker/Info


-or-


 

Live Flight TrackerFlight Track Log ✈ AAY805 ✈ 10-Apr-2014 ✈ KCHA - KPIE

Flight Track Log - Related Links

Times and Time Zones

All times are in EDT time to prevent confusion due to time zone crossing. See the AAY805 flight status page for this flight to view local times or setup timezone preferences in your user account.

Time Position Orientation Groundspeed Altitude Reporting Facility
EDT Latitude Longitude Course Direction KTS MPH feet Rate Location/Type
09:15AM 34.8725 -85.1528 158° South 251 289 7,200  Level Atlanta Center
09:16AM 34.7997 -85.1114 155° Southeast 268 308 9,800 2,280 Climbing Atlanta Center
09:17AM 34.7167 -85.0622 154° Southeast 303 349 11,800 2,100 Climbing Atlanta Center
09:19AM 34.4697 -84.8765 158° South  Level FlightAware Approximate
09:20AM 34.3723 -84.8278 158° South  Level FlightAware Approximate
09:23AM 34.1458 -84.7303 155° Southeast 432 497 24,000  Level FlightAware ADS-B (KDZJ)
09:24AM 34.0721 -84.6879 154° Southeast 433 498 25,100 1,440 Climbing FlightAware ADS-B (KDZJ)
09:24AM 34.0218 -84.6592 156° South 442 509 25,800 1,440 Climbing FlightAware ADS-B (KDZJ)
09:25AM 33.8825 -84.6369 156° South 428 493 27,500 1,560 Climbing Atlanta Center
09:26AM 33.7614 -84.6311 178° South 434 499 29,000 1,260 Climbing Atlanta Center
09:27AM 33.6364 -84.6228 177° South 441 507 30,100 1,020 Climbing Atlanta Center
09:28AM 33.5069 -84.6019 172° South 463 533 31,100 1,200 Climbing Atlanta Center
09:29AM 33.3797 -84.5761 170° South 468 539 32,600 1,320 Climbing Atlanta Center
09:30AM 33.2525 -84.5531 171° South 463 533 33,800 1,140 Climbing Atlanta Center
09:31AM 33.1253 -84.5275 170° South 463 533 34,900 1,020 Climbing Atlanta Center
09:32AM 33.0003 -84.5044 171° South 463 533 35,900 900 Climbing Atlanta Center
09:33AM 32.8750 -84.4792 170° South 463 533 36,800 540 Climbing Atlanta Center
09:34AM 32.7603 -84.4539 170° South 463 533 37,000 60 Climbing Atlanta Center
09:35AM 32.6372 -84.4286 170° South 463 533 37,000  Level Atlanta Center
09:36AM 32.5122 -84.4058 171° South 463 533 37,000  Level Atlanta Center
09:37AM 32.3847 -84.3808 171° South 468 539 37,000  Level Atlanta Center
09:38AM 32.2556 -84.3556 171° South 468 539 37,000  Level Atlanta Center
09:39AM 32.1303 -84.3331 171° South 468 539 37,000  Level Atlanta Center
09:40AM 32.0022 -84.3036 169° South 465 535 37,000  Level Jacksonville Center
09:41AM 31.8769 -84.2822 172° South 465 535 37,000  Level Jacksonville Center
09:42AM 31.7500 -84.2583 171° South 465 535 37,000  Level Jacksonville Center
09:43AM 31.6250 -84.2344 171° South 465 535 37,000  Level Jacksonville Center
09:49AM 30.8858 -84.0924 171° South 448 516 37,000  Level FlightAware ADS-B (KTLH)
09:50AM 30.8054 -84.0773 171° South 448 516 37,000  Level FlightAware ADS-B (KTLH)
09:51AM 30.7035 -84.0581 171° South 448 516 37,000  Level FlightAware ADS-B (KTLH)
09:51AM 30.6335 -84.0450 171° South 446 513 37,000  Level FlightAware ADS-B (KTLH)
09:52AM 30.5484 -84.0293 171° South 445 512 37,000  Level FlightAware ADS-B (KTLH)
09:52AM 30.4700 -84.0150 171° South 444 511 37,000  Level FlightAware ADS-B (KTLH)
09:53AM 30.3933 -84.0007 171° South 445 512 37,000  Level FlightAware ADS-B (KTLH)
09:54AM 30.3147 -83.9861 171° South 447 514 37,000  Level FlightAware ADS-B (KTLH)
09:54AM 30.2433 -83.9732 171° South 449 517 37,000  Level FlightAware ADS-B (KTLH)
09:55AM 30.1651 -83.9584 171° South 451 519 37,000  Level FlightAware ADS-B (KTLH)
09:55AM 30.0983 -83.9458 171° South 452 520 37,000  Level FlightAware ADS-B (KTLH)
09:56AM 30.0158 -83.9314 171° South 453 521 37,000 -300 Level Jacksonville Center
09:57AM 29.8928 -83.9108 172° South 453 521 36,500 -720 Descending Jacksonville Center
09:58AM 29.7722 -83.8664 162° South 453 521 35,600 -1,020 Descending Jacksonville Center
09:59AM 29.6536 -83.7889 150° Southeast 459 528 34,500 -1,560 Descending Jacksonville Center
10:01AM 29.4272 -83.6436 151° Southeast 470 541 31,000 -1,920 Descending Jacksonville Center
10:02AM 29.3169 -83.5714 150° Southeast 464 534 28,900 -2,100 Descending Jacksonville Center
10:03AM 29.2108 -83.5039 151° Southeast 451 519 26,800 -1,980 Descending Jacksonville Center
10:04AM 29.1067 -83.4369 151° Southeast 441 507 25,000 -2,040 Descending Jacksonville Center
10:05AM 29.0025 -83.3722 151° Southeast 435 501 22,700 -2,100 Descending Jacksonville Center
10:06AM 28.9025 -83.3100 151° Southeast 428 493 20,800 -1,740 Descending Jacksonville Center
10:08AM 28.7192 -83.1908 150° Southeast 390 449 17,600 -1,440 Descending Jacksonville Center
10:14AM 28.2515 -82.9004 162° South 299 344 9,800 -1,320 Descending FlightAware ADS-B (KMCO)
10:15AM 28.1689 -82.8908 162° South 297 342 8,700 -1,440 Descending Miami Center
10:16AM 28.0892 -82.9003 186° South 288 331 6,800 -1,620 Descending Miami Center
10:17AM 28.0106 -82.9125 188° South 289 333 5,400 -1,440 Descending Miami Center
10:18AM 27.9456 -82.8931 165° South 279 321 3,900 -1,440 Descending Miami Center
10:19AM 27.8833 -82.8500 149° Southeast 234 269 2,700 -1,140 Descending Tampa TRACON
10:20AM 27.8333 -82.8000 139° Southeast 223 257 1,800 -420 Descending Tampa TRACON
10:22AM 27.8167 -82.7000 101° East 153 176 1,600 -240 Descending Tampa TRACON
10:23AM 27.8333 -82.6833 41° Northeast 141 162 1,200 -600 Descending Tampa TRACON
10:24AM 27.8833 -82.6833 360° North 139 160 500 -720 Descending Tampa TRACON